EDLI 240547Z 02005KT 5000 -SN ///023 M00/M00 Q0992

Wind aktuell: 020° mit 6 kt

Wind 10 Minuten extrem:

360° bis 050° mit 3 kt bis 8 kt

Seitenwindkomponente: -6.4 kt

Wolkengrenze 1: 2400

Wolkengrenze 2: keine

Wolkengrenze 3: keine

Sichtweite: 5.000 Meter

Vorheriges Wetter: -SN

Aktuelles Wetter:

Temperatur: 0.7 °C

Taupunkt: 0.4 °C

Luftfeuchtigkeit: 97%

QNH: 992 hPa 

QFE: 976 hPa

Diese Daten werden automatisch ermittelt bzw. übertragen und sind nicht geprüft. Für die Richtigkeit wird daher keine Gewähr übernommen. Sie ersetzen im übrigen nicht die Flugwetterberatung. Alle Zeitangaben beziehen sich auf UTC. Die Seite wird einmal die Minute aktualisiert! Sollten Sie ein ältere Seite haben, so drücken Sie bitte auf den Reload Button Ihres Browsers!